Aviation Digital Data Service (ADDS)

Output produced by METARs form (1928 UTC 27 May 2017)
found at http://aviationweather.gov/adds/metars/
 
KSBY 271742Z 2718/2818 17008KT P6SM SCT050 
     FM271900 17008KT P6SM BKN060 
     FM272200 15006KT P6SM VCTS BKN060CB 
     FM280000 10005KT P6SM VCSH BKN060 
     FM280600 10005KT P6SM BKN060 
     FM281400 07008KT P6SM BKN045